Главная страница
METAR-TAF:

METAR-TAF

Аэропорты :

Риека, Хорватия

широта: 45-13N, долгота: 014-35E, высота над уровнем моря: 85 м

Текущие метеонаблюдения

Эта сводка был подготовлена 14 минут назад, в 06:00 UTC
Ветер 8 Узел переменных направлений с порывами до 21 Узел
Температура 12°C
Влажность 58%
Давление 1020 hPa
Видимость 10 км и более
небольшая облачность на высоте 4000 фута

METAR: LDRI 220600Z VRB08G21KT 9999 FEW040 12/04 Q1020

Время: 08:14 (06:14 UTC)

Прогноз

Эта сводка был подготовлена 49 минут назад, в 05:25 UTC
Прогноз действительный с 22-го 06 UTC до 23-го 06 UTC
Ветер 12 Узел от восточно-северо-восточный с порывами до 25 Узел
Видимость 10 км и более
небольшая облачность на высоте 4000 фута
временами
С 22-го 06 UTC до 23-го 06 UTC
Ветер 15 Узел от восточно-северо-восточный с порывами до 35 Узел

TAF: LDRI 220525Z 2206/2306 06012G25KT 9999 FEW040 TX16/2212Z TN10/2305Z TEMPO 2206/2306 06015G35KT

Метеонаблюдения и прогнозы для более 4000 аэропортов (сводки METAR и TAF).

Имеющиеся станции представлены на карте желтыми и красными точками.

Чтобы увидеть название станции, наведите на нее мышь.

Затем щелкните, чтобы увидеть метеонаблюдения и метеопрогнозы.

Управление картой: чтобы увеличить масштаб, щелкните зеленые кнопки с черным крестиком; чтобы уменьшить масштаб, щелкните зеленую кнопку с тире; для просмотра соседних карт щелкайте зеленые стрелки.


METAR-TAF: